This is the latest recevied weather packets stored in our database for station/object KN6CRX. If no packets are shown the sender has not sent any weather packets the latest 10 day(s).
| Time | Temp. | Humidity | Pressure | Rain* | Wind** | Luminosity | Snow |
|---|---|---|---|---|---|---|---|
| 1787778708 | 33.89° C | 19% | 1022.8 hPa | 0 mm | - | 800 W/m² | - |
| 1787778404 | 33.89° C | 20% | 1022.6 hPa | 0 mm | - | 810 W/m² | - |
| 1787778099 | 33.89° C | 19% | 1023 hPa | 0 mm | - | 797 W/m² | - |
| 1787777798 | 33.89° C | 20% | 1022.8 hPa | 0 mm | - | 688 W/m² | - |
| 1787777495 | 33.33° C | 20% | 1023.2 hPa | 0 mm | - | 832 W/m² | - |
| 1787777195 | 33.33° C | 20% | 1023.2 hPa | 0 mm | - | 826 W/m² | - |
| 1787776894 | 33.33° C | 23% | 1023.3 hPa | 0 mm | - | 731 W/m² | - |
| 1787776593 | 32.78° C | 23% | 1023.3 hPa | 0 mm | - | 846 W/m² | - |
| 1787776292 | 32.22° C | 24% | 1023.5 hPa | 0 mm | - | 862 W/m² | - |
| 1787775990 | 31.67° C | 24% | 1023.5 hPa | 0 mm | - | 822 W/m² | - |
| 1787775686 | 31.67° C | 26% | 1023.6 hPa | 0 mm | - | 937 W/m² | - |
| 1787775384 | 31.67° C | 25% | 1023.8 hPa | 0 mm | - | 754 W/m² | - |
| 1787775079 | 31.67° C | 24% | 1023.6 hPa | 0 mm | - | 549 W/m² | - |
| 1787774778 | 32.22° C | 21% | 1023.7 hPa | 0 mm | - | 633 W/m² | - |
| 1787774473 | 31.11° C | 24% | 1023.9 hPa | 0 mm | - | 787 W/m² | - |
| 1787774172 | 30.56° C | 24% | 1023.9 hPa | 0 mm | - | 948 W/m² | - |
| 1787773871 | 30.56° C | 27% | 1024.1 hPa | 0 mm | - | 915 W/m² | - |
| 1787773570 | 31.11° C | 26% | 1024 hPa | 0 mm | - | 399 W/m² | - |
| 1787773266 | 31.11° C | 24% | 1024.4 hPa | 0 mm | - | 858 W/m² | - |
| 1787772961 | 30.56° C | 26% | 1024.4 hPa | 0 mm | - | 751 W/m² | - |
| 1787772657 | 30.56° C | 25% | 1024.6 hPa | 0 mm | - | 780 W/m² | - |
| 1787772355 | 30.56° C | 26% | 1024.5 hPa | 0 mm | - | 846 W/m² | - |
| 1787772054 | 30° C | 29% | 1024.6 hPa | 0 mm | - | 850 W/m² | - |
| 1787771754 | 30° C | 29% | 1024.8 hPa | 0 mm | - | 849 W/m² | - |
| 1787771453 | 29.44° C | 33% | 1024.7 hPa | 0 mm | - | 690 W/m² | - |
* Rain latest hour (hover to see other rain measurements)
** Current wind speed in m/s (hover to see current wind gust speed)